Time;durP1;ratioP1;P1;durP2;ratioP2;P2;SDS_P1;SDS_P2;PMS_P1;PMS_P2;Temp;Humidity;BMP_temperature;BMP_pressure;BME280_temperature;BME280_humidity;BME280_pressure;Samples;Min_cycle;Max_cycle;Signal;HPM_P1;HPM_P2
2022/09/05 00:00:18;;;;;;;2.70;1.45;;;;;;;15.98;37.91;102113.44;5078769;28;20032;-70
2022/09/05 00:03:05;;;;;;;3.75;1.60;;;;;;;16.20;37.91;102120.44;5076197;28;20044;-70
2022/09/05 00:06:08;;;;;;;1.92;1.40;;;;;;;16.03;37.96;102117.69;5076181;28;20036;-68
2022/09/05 00:08:49;;;;;;;2.40;1.35;;;;;;;16.11;37.93;102112.94;5075163;28;20055;-70
2022/09/05 00:11:23;;;;;;;2.67;1.07;;;;;;;15.84;38.34;102109.66;5075862;28;20637;-69
2022/09/05 00:14:30;;;;;;;2.53;1.25;;;;;;;15.86;38.48;102110.47;5077186;28;20426;-69
2022/09/05 00:17:14;;;;;;;4.90;1.27;;;;;;;16.04;37.99;102107.09;5078690;28;20074;-65
2022/09/05 00:19:55;;;;;;;2.28;1.40;;;;;;;16.07;37.91;102109.56;5074134;28;20043;-65
2022/09/05 00:22:42;;;;;;;10.73;1.55;;;;;;;15.91;38.14;102109.34;5074762;28;20089;-73
2022/09/05 00:25:19;;;;;;;4.60;1.33;;;;;;;16.00;38.03;102103.72;5079531;28;20036;-73
2022/09/05 00:27:48;;;;;;;1.98;1.20;;;;;;;16.02;38.00;102110.69;5077776;28;20051;-72
2022/09/05 00:30:19;;;;;;;5.22;1.13;;;;;;;16.03;37.79;102105.34;5092586;28;20403;-72
2022/09/05 00:32:50;;;;;;;1.83;1.33;;;;;;;15.93;37.65;102102.25;5076560;28;20051;-72
2022/09/05 00:35:17;;;;;;;2.03;1.00;;;;;;;15.99;38.15;102101.97;5075836;28;20039;-72
2022/09/05 00:37:46;;;;;;;3.10;0.93;;;;;;;16.03;37.87;102107.13;5077190;28;20028;-72
2022/09/05 00:40:20;;;;;;;2.42;1.25;;;;;;;15.85;38.03;102099.06;5075985;28;20480;-71
2022/09/05 00:42:53;;;;;;;2.53;1.75;;;;;;;15.86;38.15;102103.41;5076469;28;20052;-71
2022/09/05 00:45:31;;;;;;;2.08;1.17;;;;;;;15.94;38.07;102096.03;5077625;28;20913;-71
2022/09/05 00:48:05;;;;;;;2.20;1.10;;;;;;;15.99;37.88;102099.34;5077264;28;20040;-71
2022/09/05 00:50:39;;;;;;;3.33;1.33;;;;;;;15.88;38.32;102092.81;5092038;28;20048;-73
2022/09/05 00:53:37;;;;;;;3.63;0.95;;;;;;;15.87;38.33;102089.31;5077102;28;20052;-71
2022/09/05 00:56:37;;;;;;;1.65;1.10;;;;;;;15.75;38.44;102095.97;5071258;28;20047;-67
2022/09/05 00:59:41;;;;;;;2.38;1.33;;;;;;;15.68;38.53;102091.00;5089443;28;20043;-67
2022/09/05 01:02:06;;;;;;;6.45;1.65;;;;;;;15.68;38.57;102091.00;5077903;28;20056;-71
2022/09/05 01:04:46;;;;;;;2.95;1.70;;;;;;;15.88;38.15;102087.53;5073841;28;20024;-70
2022/09/05 01:07:43;;;;;;;7.80;1.65;;;;;;;15.94;38.05;102093.38;5076588;28;20056;-69
2022/09/05 01:10:18;;;;;;;2.08;1.17;;;;;;;15.79;38.32;102088.78;5091731;28;20039;-70
2022/09/05 01:13:02;;;;;;;2.30;1.10;;;;;;;15.79;38.39;102094.06;5074976;28;20058;-69
2022/09/05 01:15:53;;;;;;;2.83;1.23;;;;;;;15.70;38.56;102094.44;5073971;28;20547;-69
2022/09/05 01:18:35;;;;;;;2.75;1.38;;;;;;;15.84;38.30;102097.38;5049905;28;20044;-68
2022/09/05 01:21:09;;;;;;;4.85;1.40;;;;;;;15.85;38.04;102096.44;5076235;28;20044;-69
2022/09/05 01:23:44;;;;;;;1.58;0.82;;;;;;;15.98;37.85;102097.63;5049125;28;20685;-70
2022/09/05 01:26:19;;;;;;;3.78;1.10;;;;;;;15.92;38.01;102097.03;5075389;28;20051;-70
2022/09/05 01:29:04;;;;;;;1.75;0.95;;;;;;;15.85;38.07;102098.22;5073738;28;20085;-69
2022/09/05 01:32:08;;;;;;;2.25;1.38;;;;;;;15.88;38.28;102092.81;5074900;28;20068;-68
2022/09/05 01:35:00;;;;;;;2.15;1.10;;;;;;;15.68;38.36;102091.00;5074849;28;20058;-70
2022/09/05 01:37:31;;;;;;;;;;;;;;;15.71;38.42;102088.28;5074006;28;20523;-67
2022/09/05 01:40:26;;;;;;;3.97;1.20;;;;;;;15.77;38.25;102086.22;5075372;28;20007;-69
2022/09/05 01:43:49;;;;;;;3.67;1.40;;;;;;;15.88;37.93;102096.28;5074198;28;20130;-68
2022/09/05 01:47:03;;;;;;;4.65;1.30;;;;;;;15.91;37.98;102088.25;5014244;28;20061;-67
2022/09/05 01:49:59;;;;;;;3.58;0.80;;;;;;;15.89;38.00;102090.09;4946295;28;20670;-75
2022/09/05 01:52:44;;;;;;;4.80;1.35;;;;;;;15.87;38.16;102089.31;5075448;28;20082;-73
2022/09/05 01:55:34;;;;;;;1.92;1.10;;;;;;;15.88;37.97;102087.53;5076185;28;20469;-75
2022/09/05 01:58:15;;;;;;;1.55;1.10;;;;;;;15.92;38.17;102079.41;5077478;28;20039;-75
2022/09/05 02:00:55;;;;;;;1.70;1.13;;;;;;;15.78;38.45;102084.44;5075910;28;20036;-72
2022/09/05 02:03:39;;;;;;;2.95;1.20;;;;;;;15.62;38.58;102075.44;5071377;28;20048;-68
2022/09/05 02:06:16;;;;;;;2.30;1.10;;;;;;;15.74;38.37;102080.22;5078333;28;20435;-68
2022/09/05 02:08:50;;;;;;;2.50;1.45;;;;;;;15.73;38.38;102075.88;5063141;28;20507;-65
2022/09/05 02:11:16;;;;;;;2.28;1.58;;;;;;;15.71;38.65;102080.38;5091621;28;20523;-67
2022/09/05 02:13:52;;;;;;;2.38;1.30;;;;;;;15.93;38.10;102075.88;5065246;28;20081;-67
2022/09/05 02:16:36;;;;;;;3.75;1.13;;;;;;;15.74;38.44;102080.22;5076275;28;20119;-69
2022/09/05 02:19:08;;;;;;;2.25;1.60;;;;;;;15.75;38.45;102076.66;5069598;28;20767;-70
2022/09/05 02:21:36;;;;;;;1.67;1.20;;;;;;;15.80;38.28;102079.97;5063012;28;20035;-68
2022/09/05 02:24:14;;;;;;;2.80;1.40;;;;;;;15.88;38.19;102080.47;5090252;28;20040;-68
2022/09/05 02:26:58;;;;;;;2.08;1.30;;;;;;;15.77;38.38;102080.97;5076615;28;20085;-69
2022/09/05 02:29:27;;;;;;;2.60;1.25;;;;;;;15.78;38.37;102084.44;5082114;28;20024;-68
2022/09/05 02:32:20;;;;;;;2.25;1.20;;;;;;;15.84;38.31;102080.66;5079854;28;20040;-69
2022/09/05 02:35:00;;;;;;;2.25;1.15;;;;;;;15.74;38.47;102082.84;5082761;28;20054;-69
2022/09/05 02:37:57;;;;;;;2.25;1.65;;;;;;;15.84;38.28;102081.56;5079369;28;20046;-70
2022/09/05 02:40:34;;;;;;;2.35;1.00;;;;;;;15.78;38.54;102087.94;5080911;28;20032;-70
2022/09/05 02:43:27;;;;;;;2.00;1.20;;;;;;;15.65;38.85;102085.88;5066453;28;20059;-70
2022/09/05 02:46:03;;;;;;;2.40;1.08;;;;;;;15.76;38.66;102081.88;5082244;28;20641;-70
2022/09/05 02:48:48;;;;;;;4.18;1.35;;;;;;;15.89;38.37;102086.63;5080061;28;20048;-71
2022/09/05 02:51:20;;;;;;;2.20;1.10;;;;;;;15.69;38.67;102079.56;5080272;28;20044;-69
2022/09/05 02:53:51;;;;;;;1.55;1.17;;;;;;;15.80;38.45;102079.97;5081108;28;20071;-66
2022/09/05 02:56:54;;;;;;;2.58;1.08;;;;;;;15.65;38.67;102077.97;5080337;28;20038;-66
2022/09/05 02:59:54;;;;;;;3.33;1.42;;;;;;;15.71;38.78;102080.38;5093067;28;20044;-68
2022/09/05 03:02:43;;;;;;;3.95;1.60;;;;;;;15.61;39.06;102073.75;5060224;28;20397;-72
2022/09/05 03:05:16;;;;;;;4.03;1.48;;;;;;;15.52;39.35;102075.84;5087548;28;20515;-73
2022/09/05 03:08:00;;;;;;;4.00;1.83;;;;;;;15.62;38.96;102073.69;5052629;28;20056;-73
2022/09/05 03:10:47;;;;;;;2.33;1.20;;;;;;;15.61;39.06;102073.75;5082558;28;20039;-72
2022/09/05 03:13:56;;;;;;;2.72;1.20;;;;;;;15.55;39.30;102073.09;5061410;28;20048;-72
2022/09/05 03:16:37;;;;;;;1.63;1.00;;;;;;;15.64;38.90;102074.50;5099526;27;20114;-72
2022/09/05 03:19:15;;;;;;;1.95;1.48;;;;;;;15.59;39.09;102079.09;5081142;28;20036;-73
2022/09/05 03:22:16;;;;;;;2.53;1.45;;;;;;;15.51;39.19;102074.16;5070983;28;20039;-71
2022/09/05 03:25:03;;;;;;;2.53;1.38;;;;;;;15.45;39.54;102071.75;5068564;28;20035;-73
2022/09/05 03:28:06;;;;;;;2.97;1.27;;;;;;;15.35;39.62;102073.09;5055062;28;21044;-71
2022/09/05 03:31:05;;;;;;;3.28;1.00;;;;;;;15.37;39.46;102071.22;5078136;28;20089;-74
2022/09/05 03:34:15;;;;;;;2.05;1.55;;;;;;;15.42;39.62;102077.16;5080108;28;20051;-76
2022/09/05 03:36:59;;;;;;;4.97;1.92;;;;;;;15.37;39.79;102076.47;5046134;28;20028;-67
2022/09/05 03:39:36;;;;;;;4.60;1.63;;;;;;;15.36;39.42;102082.69;5071055;28;20040;-68
2022/09/05 03:42:35;;;;;;;3.30;1.70;;;;;;;15.44;39.64;102077.97;5051938;28;20067;-67
2022/09/05 03:45:19;;;;;;;4.32;1.83;;;;;;;15.47;39.29;102080.47;5077717;28;20034;-67
2022/09/05 03:48:09;;;;;;;3.60;1.67;;;;;;;15.46;39.41;102078.75;5044720;28;20244;-67
2022/09/05 03:50:35;;;;;;;2.33;1.60;;;;;;;15.49;39.54;102080.41;5070930;28;20040;-68
2022/09/05 03:53:19;;;;;;;4.88;1.45;;;;;;;15.42;39.84;102077.16;5078698;28;20535;-67
2022/09/05 03:56:12;;;;;;;3.65;1.40;;;;;;;15.46;39.51;102088.41;5077218;28;20058;-67
2022/09/05 03:59:04;;;;;;;1.98;1.65;;;;;;;15.48;39.63;102089.22;5075689;28;20044;-69
2022/09/05 04:01:35;;;;;;;2.22;1.52;;;;;;;15.47;39.38;102088.38;5075051;28;20039;-68
2022/09/05 04:04:11;;;;;;;4.43;1.40;;;;;;;15.36;39.91;102090.59;5076305;28;20127;-68
2022/09/05 04:06:56;;;;;;;3.72;1.65;;;;;;;15.26;39.93;102084.84;5052025;28;20038;-66
2022/09/05 04:09:31;;;;;;;2.63;1.92;;;;;;;15.35;39.99;102083.63;5073467;28;20069;-67
2022/09/05 04:12:10;;;;;;;4.95;1.70;;;;;;;15.25;40.23;102084.91;5079039;28;20044;-67
2022/09/05 04:14:51;;;;;;;2.15;1.55;;;;;;;15.25;40.19;102088.38;5078592;28;20028;-67
2022/09/05 04:17:21;;;;;;;2.13;1.50;;;;;;;15.22;40.20;102087.66;5073318;28;20043;-67
2022/09/05 04:20:07;;;;;;;1.55;1.45;;;;;;;15.14;40.47;102082.66;5076224;28;20133;-66
2022/09/05 04:23:09;;;;;;;2.60;1.30;;;;;;;15.17;40.48;102086.03;5074020;28;20044;-68
2022/09/05 04:26:00;;;;;;;3.83;1.07;;;;;;;15.26;40.02;102079.59;5076631;28;20332;-71
2022/09/05 04:29:13;;;;;;;4.28;1.80;;;;;;;15.24;40.35;102086.69;5055874;28;20046;-70
2022/09/05 04:32:13;;;;;;;4.03;2.15;;;;;;;15.18;40.40;102090.38;5054800;28;20081;-69
2022/09/05 04:35:12;;;;;;;4.47;1.85;;;;;;;15.31;40.51;102092.56;5077065;28;20059;-70
2022/09/05 04:38:03;;;;;;;2.15;1.42;;;;;;;15.25;40.53;102093.66;5068047;28;20048;-69
2022/09/05 04:40:47;;;;;;;2.00;1.77;;;;;;;15.32;40.21;102089.00;5076565;28;20035;-70
2022/09/05 04:43:41;;;;;;;2.53;1.77;;;;;;;15.40;40.25;102092.19;5062348;28;20055;-69
2022/09/05 04:46:44;;;;;;;2.25;1.52;;;;;;;15.40;40.07;102097.44;5040105;28;20044;-68
2022/09/05 04:49:38;;;;;;;5.00;1.98;;;;;;;15.27;40.44;102091.81;5062784;28;20051;-68
2022/09/05 04:52:30;;;;;;;2.38;1.67;;;;;;;15.26;40.37;102091.88;5065156;28;20060;-68
2022/09/05 04:55:10;;;;;;;2.13;1.65;;;;;;;15.29;40.46;102089.97;5078998;28;20131;-68
2022/09/05 04:58:10;;;;;;;4.25;1.45;;;;;;;15.22;40.37;102098.22;5056212;28;20439;-66
2022/09/05 05:00:52;;;;;;;4.05;1.73;;;;;;;15.22;40.43;102101.69;5070244;28;20024;-67
2022/09/05 05:03:38;;;;;;;3.90;1.75;;;;;;;15.24;40.43;102102.50;5073035;28;20048;-66
2022/09/05 05:06:36;;;;;;;3.80;1.50;;;;;;;15.23;40.53;102110.44;5075083;28;20062;-70
2022/09/05 05:09:12;;;;;;;3.90;1.88;;;;;;;15.10;40.72;102102.13;5077521;28;20032;-69
2022/09/05 05:11:55;;;;;;;4.40;2.10;;;;;;;15.11;40.62;102107.34;5054439;28;20035;-70
2022/09/05 05:14:49;;;;;;;2.22;1.80;;;;;;;15.04;40.96;102110.28;5074133;28;20036;-69
2022/09/05 05:17:40;;;;;;;4.20;1.63;;;;;;;15.09;40.55;102118.88;5057342;28;20670;-71
2022/09/05 05:20:19;;;;;;;;;;;;;;;15.20;40.59;102123.72;5068743;28;20118;-71
2022/09/05 05:23:04;;;;;;;1.60;1.40;;;;;;;15.19;40.67;102120.19;5063267;28;19924;-73
2022/09/05 05:25:47;;;;;;;3.10;1.52;;;;;;;15.26;40.54;102123.47;5076049;28;20373;-72
2022/09/05 05:29:08;;;;;;;2.45;1.60;;;;;;;15.30;40.32;102125.06;5064635;28;20044;-73
2022/09/05 05:31:38;;;;;;;2.88;1.45;;;;;;;15.45;40.07;102120.97;5063054;28;20040;-67
2022/09/05 05:34:17;;;;;;;3.38;1.83;;;;;;;15.23;40.56;102126.25;5060083;28;20706;-72
2022/09/05 05:37:17;;;;;;;4.03;2.40;;;;;;;15.31;40.54;102126.81;5076803;28;20038;-72
2022/09/05 05:39:57;;;;;;;4.40;1.75;;;;;;;15.32;40.64;102125.88;5075208;28;20091;-66
2022/09/05 05:42:31;;;;;;;3.30;1.60;;;;;;;15.51;40.13;102126.84;5065355;28;20063;-69
2022/09/05 05:44:59;;;;;;;3.00;1.70;;;;;;;15.63;40.07;102136.00;5075248;28;20020;-71
2022/09/05 05:47:41;;;;;;;4.57;1.58;;;;;;;15.75;39.72;102129.38;5074301;28;20043;-71
2022/09/05 05:50:21;;;;;;;3.47;1.27;;;;;;;15.89;39.71;102129.66;5076355;28;20031;-71
2022/09/05 05:53:33;;;;;;;4.70;1.83;;;;;;;16.07;39.26;102130.66;5068978;28;20046;-69
2022/09/05 05:56:33;;;;;;;3.63;1.38;;;;;;;16.16;39.02;102130.25;5077670;28;20036;-71
2022/09/05 05:59:11;;;;;;;2.67;1.63;;;;;;;16.39;38.44;102138.94;5072033;28;20040;-69
2022/09/05 06:01:45;;;;;;;3.33;2.03;;;;;;;16.70;37.83;102140.19;5070732;28;20553;-69
2022/09/05 06:04:51;;;;;;;3.03;1.67;;;;;;;16.99;37.82;102138.88;5048375;28;20052;-66
2022/09/05 06:07:37;;;;;;;7.53;2.10;;;;;;;18.19;34.95;102138.25;5064260;28;20507;-70
2022/09/05 06:10:32;;;;;;;2.65;2.15;;;;;;;19.19;33.20;102141.66;5077263;28;20484;-68
2022/09/05 06:13:29;;;;;;;8.93;2.15;;;;;;;18.28;34.68;102143.06;5076076;28;20041;-70
2022/09/05 06:16:39;;;;;;;3.33;1.45;;;;;;;17.85;35.96;102153.22;5078785;28;20395;-72
2022/09/05 06:19:11;;;;;;;3.05;1.33;;;;;;;18.59;34.41;102154.69;5048295;28;20117;-68
2022/09/05 06:21:57;;;;;;;;;;;;;;;19.17;33.41;102156.78;5090503;28;20091;-68
2022/09/05 06:25:20;;;;;;;2.83;1.65;;;;;;;20.75;31.25;102143.84;5089088;28;19974;-69
2022/09/05 06:27:55;;;;;;;1.33;1.00;;;;;;;20.72;30.78;102146.72;4984778;28;20075;-72
2022/09/05 06:30:24;;;;;;;3.70;2.17;;;;;;;19.85;31.59;102145.78;5064136;28;20535;-70
2022/09/05 06:33:23;;;;;;;1.60;1.38;;;;;;;18.44;33.92;102148.41;5062138;28;20038;-71
2022/09/05 06:36:22;;;;;;;2.08;1.27;;;;;;;17.55;36.32;102152.94;5074220;28;20036;-70
2022/09/05 06:39:18;;;;;;;2.70;1.25;;;;;;;17.25;37.00;102145.56;5077162;28;20134;-69
2022/09/05 06:42:11;;;;;;;6.60;1.40;;;;;;;17.30;37.19;102151.47;5061604;28;20036;-71
2022/09/05 06:44:58;;;;;;;2.33;1.98;;;;;;;17.23;37.30;102153.53;5070810;28;20168;-69
2022/09/05 06:47:28;;;;;;;5.80;1.73;;;;;;;17.22;37.22;102149.22;5077561;28;20072;-70
2022/09/05 06:50:04;;;;;;;4.50;2.10;;;;;;;16.93;37.66;102149.72;5073845;28;20066;-71
2022/09/05 06:53:06;;;;;;;5.40;1.95;;;;;;;17.41;36.71;102153.59;5061288;28;20040;-71
2022/09/05 06:55:50;;;;;;;;;;;;;;;17.54;36.50;102156.53;5075339;28;20063;-72
2022/09/05 06:58:59;;;;;;;2.30;1.45;;;;;;;18.82;34.13;102154.25;5061139;28;19920;-70
2022/09/05 07:01:33;;;;;;;4.22;1.45;;;;;;;21.12;30.75;102147.69;5075148;28;20036;-73
2022/09/05 07:04:29;;;;;;;3.63;1.58;;;;;;;21.68;28.94;102155.56;5062745;28;20504;-73
2022/09/05 07:07:31;;;;;;;1.77;1.67;;;;;;;22.49;27.63;102146.44;5053631;28;20139;-73
2022/09/05 07:10:34;;;;;;;17.52;8.35;;;;;;;21.53;28.30;102145.94;5074772;28;20111;-72
2022/09/05 07:13:35;;;;;;;3.70;2.70;;;;;;;22.68;27.66;102145.13;5068341;28;20448;-72
2022/09/05 07:16:17;;;;;;;3.38;1.30;;;;;;;23.54;26.01;102144.19;5080898;28;20101;-71
2022/09/05 07:19:25;;;;;;;2.85;1.50;;;;;;;23.57;26.17;102146.63;5046770;28;20048;-71
2022/09/05 07:22:39;;;;;;;4.38;1.75;;;;;;;24.15;25.56;102139.47;5067511;28;20040;-71
2022/09/05 07:25:12;;;;;;;1.73;1.17;;;;;;;24.32;24.88;102145.31;5081022;28;20028;-71
2022/09/05 07:28:11;;;;;;;4.15;2.25;;;;;;;24.00;25.57;102141.53;5079057;28;20500;-70
2022/09/05 07:30:48;;;;;;;3.43;2.43;;;;;;;24.39;24.38;102154.53;5080057;28;20036;-70
2022/09/05 07:33:28;;;;;;;2.60;1.52;;;;;;;24.55;25.32;102154.19;5072228;28;20078;-71
2022/09/05 07:36:15;;;;;;;3.63;2.65;;;;;;;24.41;24.99;102145.47;5079912;28;20040;-69
2022/09/05 07:38:49;;;;;;;4.65;2.45;;;;;;;24.41;25.21;102144.56;5073747;28;20063;-70
2022/09/05 07:41:49;;;;;;;;;;;;;;;;;;;;;
2022/09/05 07:44:34;;;;;;;5.30;2.70;;;;;;;24.88;24.08;102142.59;5070742;28;20419;-70
2022/09/05 07:47:08;;;;;;;4.15;2.17;;;;;;;24.52;24.83;102144.59;5070168;28;20039;-70
2022/09/05 07:49:44;;;;;;;2.03;1.48;;;;;;;24.36;24.97;102142.28;5078839;28;20515;-70
2022/09/05 07:52:19;;;;;;;1.52;1.35;;;;;;;25.12;24.36;102142.44;5078661;28;20569;-71
2022/09/05 07:54:52;;;;;;;3.42;1.67;;;;;;;24.96;24.16;102134.81;5078387;28;20032;-69
2022/09/05 07:57:25;;;;;;;3.10;1.67;;;;;;;24.78;24.85;102136.31;5067214;28;20527;-70
2022/09/05 08:00:07;;;;;;;3.53;1.98;;;;;;;24.93;24.19;102145.75;5074608;28;20032;-69
2022/09/05 08:02:53;;;;;;;1.88;1.45;;;;;;;25.07;24.41;102146.50;5074812;28;20044;-69
2022/09/05 08:05:21;;;;;;;2.58;2.08;;;;;;;24.87;24.60;102151.59;5077725;28;20055;-71
2022/09/05 08:08:00;;;;;;;4.05;1.98;;;;;;;25.06;24.15;102145.63;5073438;28;20161;-70
2022/09/05 08:10:35;;;;;;;2.20;1.80;;;;;;;24.94;24.70;102146.59;5073147;28;20958;-72
2022/09/05 08:13:13;;;;;;;3.55;2.08;;;;;;;24.67;24.93;102145.19;5066790;28;20584;-70
2022/09/05 08:15:48;;;;;;;2.95;2.00;;;;;;;24.41;25.51;102139.22;5071818;28;20040;-70
2022/09/05 08:18:13;;;;;;;2.90;1.83;;;;;;;24.83;24.81;102148.31;5074396;28;20568;-70
2022/09/05 08:20:43;;;;;;;6.25;1.83;;;;;;;26.21;23.38;102151.13;5076357;28;20040;-70
2022/09/05 08:23:30;;;;;;;16.30;8.27;;;;;;;25.30;24.38;102148.09;5077246;28;20218;-69
2022/09/05 08:26:07;;;;;;;2.70;2.17;;;;;;;26.08;23.31;102148.66;5075404;28;20035;-70
2022/09/05 08:29:11;;;;;;;4.13;2.17;;;;;;;24.89;25.19;102144.31;5074268;28;20459;-69
2022/09/05 08:31:43;;;;;;;2.35;2.15;;;;;;;24.71;24.95;102153.84;5076188;28;20131;-70
2022/09/05 08:34:17;;;;;;;2.97;2.13;;;;;;;23.68;26.44;102146.66;5073765;28;20036;-69
2022/09/05 08:36:48;;;;;;;2.10;1.65;;;;;;;24.11;26.33;102147.88;5075723;28;20036;-69
2022/09/05 08:39:24;;;;;;;2.80;2.20;;;;;;;24.09;26.29;102144.47;5073883;28;20253;-70
2022/09/05 08:41:56;;;;;;;7.78;2.80;;;;;;;25.38;24.93;102150.13;5075923;28;20048;-70
2022/09/05 08:44:29;;;;;;;3.08;1.67;;;;;;;25.80;24.17;102140.31;5075453;28;20032;-71
2022/09/05 08:47:19;;;;;;;3.58;2.30;;;;;;;25.41;24.55;102152.53;5076122;28;20062;-70
2022/09/05 08:50:03;;;;;;;3.53;2.17;;;;;;;25.37;24.91;102143.91;5075974;28;20059;-69
2022/09/05 08:53:02;;;;;;;2.95;2.00;;;;;;;25.45;24.95;102140.59;5074185;28;20075;-71
2022/09/05 08:55:33;;;;;;;3.42;2.05;;;;;;;25.83;24.64;102140.03;5073039;28;20024;-72
2022/09/05 08:58:17;;;;;;;7.00;2.30;;;;;;;25.56;24.40;102142.41;5073198;28;20131;-71
2022/09/05 09:00:50;;;;;;;2.70;2.13;;;;;;;25.77;24.10;102140.56;5087719;28;20436;-69
2022/09/05 09:03:27;;;;;;;3.55;2.38;;;;;;;24.41;26.08;102144.56;5073060;28;20185;-68
2022/09/05 09:06:48;;;;;;;3.05;1.95;;;;;;;23.89;27.17;102144.19;5089634;28;20054;-68
2022/09/05 09:09:27;;;;;;;2.83;2.10;;;;;;;23.53;27.79;102139.81;5064978;28;20181;-69
2022/09/05 09:12:01;;;;;;;4.00;2.67;;;;;;;23.25;28.37;102139.19;5072067;28;20051;-70
2022/09/05 09:14:56;;;;;;;4.65;2.13;;;;;;;23.53;28.43;102138.00;5074960;28;20067;-69
2022/09/05 09:17:41;;;;;;;3.08;2.25;;;;;;;23.41;28.64;102139.78;5071272;28;20036;-69
2022/09/05 09:20:13;;;;;;;9.07;2.38;;;;;;;24.00;27.52;102132.66;5069577;28;20388;-70
2022/09/05 09:22:46;;;;;;;3.85;1.88;;;;;;;23.89;27.86;102135.31;5074496;28;20052;-70
2022/09/05 09:25:15;;;;;;;5.45;3.65;;;;;;;24.21;27.59;102133.66;5070030;28;20277;-70
2022/09/05 09:28:29;;;;;;;3.85;2.03;;;;;;;24.47;27.38;102128.09;5073391;28;20052;-70
2022/09/05 09:31:03;;;;;;;5.10;3.03;;;;;;;24.75;26.74;102131.19;5026271;28;20551;-71
2022/09/05 09:33:39;;;;;;;2.90;1.98;;;;;;;23.91;27.41;102134.22;5071825;28;20126;-71
2022/09/05 09:36:36;;;;;;;3.45;3.08;;;;;;;23.65;28.02;102112.19;5074232;28;20077;-70
2022/09/05 09:39:20;;;;;;;4.28;1.95;;;;;;;24.09;27.76;102121.28;5031026;28;20793;-71
2022/09/05 09:42:03;;;;;;;3.63;3.00;;;;;;;24.23;27.51;102118.34;5073735;28;20724;-70
2022/09/05 09:44:51;;;;;;;3.13;2.42;;;;;;;23.82;28.06;102116.22;5073415;28;22869;-70
2022/09/05 09:47:44;;;;;;;3.75;2.35;;;;;;;23.69;28.11;102120.81;5089239;28;20443;-69
2022/09/05 09:50:47;;;;;;;3.45;2.83;;;;;;;24.06;28.28;102112.63;5075003;28;20158;-70
2022/09/05 09:53:28;;;;;;;3.72;2.92;;;;;;;23.83;28.36;102113.44;5087533;28;20184;-70
2022/09/05 09:56:08;;;;;;;;;;;;;;;23.99;27.63;102107.78;5073565;28;20040;-70
2022/09/05 09:58:50;;;;;;;2.33;1.75;;;;;;;24.13;28.20;102103.19;5067887;28;19919;-69
2022/09/05 10:01:27;;;;;;;5.05;2.53;;;;;;;24.69;27.83;102102.31;5073300;28;20488;-69
2022/09/05 10:04:17;;;;;;;4.40;3.05;;;;;;;24.48;27.15;102097.75;5071570;28;20051;-69
2022/09/05 10:07:14;;;;;;;6.78;2.15;;;;;;;24.32;27.80;102102.56;5088776;28;20062;-71
2022/09/05 10:09:53;;;;;;;7.25;2.75;;;;;;;24.09;28.38;102091.88;5071617;28;20038;-71
2022/09/05 10:12:37;;;;;;;3.35;3.00;;;;;;;23.69;28.95;102089.63;5071214;28;20031;-71
2022/09/05 10:15:28;;;;;;;2.95;2.22;;;;;;;24.30;28.08;102100.00;5073337;28;20032;-71
2022/09/05 10:18:12;;;;;;;6.05;2.67;;;;;;;24.48;27.89;102096.88;5068817;28;20063;-71
2022/09/05 10:21:00;;;;;;;5.05;2.58;;;;;;;24.21;28.24;102096.28;5073304;28;20429;-69
2022/09/05 10:24:02;;;;;;;3.25;2.53;;;;;;;24.54;27.97;102083.84;5071611;28;20483;-71
2022/09/05 10:26:49;;;;;;;5.65;3.88;;;;;;;24.97;27.33;102088.41;5073678;28;20097;-70
2022/09/05 10:29:33;;;;;;;3.38;3.08;;;;;;;24.61;27.62;102082.38;5074181;28;20105;-69
2022/09/05 10:32:07;;;;;;;10.07;5.78;;;;;;;24.26;28.57;102087.00;5091405;28;20044;-71
2022/09/05 10:35:06;;;;;;;3.83;2.88;;;;;;;24.54;27.70;102077.69;5087458;28;20039;-71
2022/09/05 10:38:02;;;;;;;5.93;2.15;;;;;;;24.91;27.93;102078.19;5073201;28;20064;-70
2022/09/05 10:40:32;;;;;;;4.93;2.25;;;;;;;24.52;27.94;102075.13;5073570;28;20027;-70
2022/09/05 10:43:09;;;;;;;3.58;2.22;;;;;;;24.04;28.71;102072.72;5073279;28;20044;-70
2022/09/05 10:46:21;;;;;;;4.88;2.15;;;;;;;24.33;28.59;102080.25;5075316;28;20561;-70
2022/09/05 10:48:52;;;;;;;4.05;2.50;;;;;;;24.86;28.01;102077.69;5073665;28;20043;-69
2022/09/05 10:51:28;;;;;;;6.38;2.95;;;;;;;25.15;27.59;102080.69;5076650;28;20062;-70
2022/09/05 10:54:21;;;;;;;5.10;2.95;;;;;;;25.45;27.22;102087.09;5076092;28;20129;-70
2022/09/05 10:56:55;;;;;;;3.10;2.15;;;;;;;25.00;27.58;102081.97;5065438;28;20351;-70
2022/09/05 10:59:52;;;;;;;4.55;2.60;;;;;;;25.38;27.64;102076.06;5073791;28;20096;-69
2022/09/05 11:02:22;;;;;;;3.50;2.38;;;;;;;25.56;26.52;102068.31;5074418;28;20240;-70
2022/09/05 11:05:14;;;;;;;3.85;2.97;;;;;;;25.73;27.00;102066.84;5078225;28;20472;-69
2022/09/05 11:08:10;;;;;;;4.63;2.45;;;;;;;25.31;27.45;102066.84;5079236;28;20337;-71
2022/09/05 11:10:50;;;;;;;2.90;2.28;;;;;;;25.47;27.02;102064.56;5077448;28;20042;-69
2022/09/05 11:13:33;;;;;;;4.65;2.28;;;;;;;25.57;26.88;102061.13;5077151;28;20055;-70
2022/09/05 11:16:28;;;;;;;9.20;2.50;;;;;;;25.41;27.11;102051.69;5093231;28;20118;-70
2022/09/05 11:19:01;;;;;;;5.15;2.45;;;;;;;25.54;27.44;102059.56;5069155;28;20047;-69
2022/09/05 11:21:38;;;;;;;6.93;2.85;;;;;;;25.25;27.19;102051.31;5077571;28;20031;-70
2022/09/05 11:24:14;;;;;;;2.85;2.17;;;;;;;25.05;28.10;102055.66;5074342;28;20079;-70
2022/09/05 11:26:48;;;;;;;4.45;2.40;;;;;;;25.21;28.13;102048.03;5077869;28;20120;-71
2022/09/05 11:29:20;;;;;;;2.88;2.58;;;;;;;24.85;28.76;102046.59;5074822;28;20036;-70
2022/09/05 11:32:22;;;;;;;2.25;2.05;;;;;;;25.57;27.32;102047.72;5077457;28;20120;-72
2022/09/05 11:35:05;;;;;;;5.43;3.47;;;;;;;25.95;26.79;102044.38;5076051;28;20035;-70
2022/09/05 11:37:57;;;;;;;3.25;2.72;;;;;;;25.71;26.81;102043.84;5074969;28;20093;-70
2022/09/05 11:40:56;;;;;;;4.40;2.60;;;;;;;25.66;27.38;102041.59;5089762;28;20082;-70
2022/09/05 11:43:43;;;;;;;7.70;3.10;;;;;;;25.94;27.14;102040.03;5075373;28;20075;-69
2022/09/05 11:46:27;;;;;;;2.30;2.10;;;;;;;25.67;27.72;102032.59;5092019;28;20543;-69
2022/09/05 11:49:05;;;;;;;3.33;2.03;;;;;;;26.19;26.93;102033.38;5076071;28;20055;-70
2022/09/05 11:52:20;;;;;;;7.45;3.08;;;;;;;26.61;26.48;102045.75;5076261;28;20416;-69
2022/09/05 11:55:18;;;;;;;6.05;3.45;;;;;;;26.75;25.75;102036.47;5015228;28;20062;-70
2022/09/05 11:57:47;;;;;;;6.85;2.67;;;;;;;26.82;26.04;102030.38;5074478;28;20035;-69
2022/09/05 12:00:24;;;;;;;5.35;2.75;;;;;;;26.93;26.27;102039.28;5073615;28;20074;-68
2022/09/05 12:02:59;;;;;;;2.53;2.30;;;;;;;26.43;26.58;102043.72;5074621;28;20104;-70
2022/09/05 12:05:55;;;;;;;9.20;2.67;;;;;;;26.18;26.83;102037.03;5072278;28;20091;-70
2022/09/05 12:08:47;;;;;;;2.47;2.05;;;;;;;26.78;26.22;102039.72;5057492;28;20028;-70
2022/09/05 12:11:30;;;;;;;6.47;2.70;;;;;;;26.32;26.69;102040.31;5061244;28;20408;-70
2022/09/05 12:14:13;;;;;;;4.10;2.47;;;;;;;26.76;26.35;102035.44;5063082;28;20070;-71
2022/09/05 12:17:11;;;;;;;2.85;2.03;;;;;;;26.79;26.23;102029.81;5059649;28;20063;-74
2022/09/05 12:19:50;;;;;;;2.80;2.13;;;;;;;27.35;25.76;102031.78;5036495;28;20165;-68
2022/09/05 12:22:28;;;;;;;3.08;2.58;;;;;;;28.11;24.73;102034.31;5058979;28;20110;-70
2022/09/05 12:25:24;;;;;;;2.08;1.88;;;;;;;29.06;23.55;102034.81;5061870;28;20028;-70
2022/09/05 12:27:55;;;;;;;9.60;8.65;;;;;;;28.83;23.76;102020.16;5061142;28;20043;-69
2022/09/05 12:30:25;;;;;;;7.85;3.25;;;;;;;28.36;23.93;102026.56;5061110;28;20028;-70
2022/09/05 12:32:57;;;;;;;2.38;2.17;;;;;;;27.79;24.92;102013.28;5060451;28;20044;-69
2022/09/05 12:35:30;;;;;;;2.10;1.65;;;;;;;27.72;24.72;102021.09;5061774;28;20027;-70
2022/09/05 12:37:56;;;;;;;5.97;2.17;;;;;;;27.04;25.60;102018.50;5059879;28;20036;-70
2022/09/05 12:40:32;;;;;;;6.57;2.83;;;;;;;27.33;25.55;102016.81;5058362;28;20425;-70
2022/09/05 12:43:03;;;;;;;3.83;1.77;;;;;;;28.23;25.50;102016.16;5056320;28;20051;-71
2022/09/05 12:46:10;;;;;;;2.20;2.00;;;;;;;27.67;24.64;102014.47;5058917;28;20112;-69
2022/09/05 12:48:49;;;;;;;2.53;1.52;;;;;;;27.95;24.36;102011.81;5019831;28;21300;-73